METAR Data
IDs: Format: Raw Decoded Include TAF

Data at: 1203 UTC 16 Jul 2019

KROW 161151Z 09004KT 10SM CLR 26/12 A3001 RMK AO2 SLP082 T02560117 10300 20250 53007
KROW 161051Z AUTO 19006KT 10SM CLR 26/12 A2999 RMK AO2 SLP077 T02560117
KROW 160951Z AUTO 12003KT 10SM CLR 26/11 A2998 RMK AO2 SLP070 T02610111
KROW 160851Z AUTO 17005KT 10SM CLR 27/11 A2999 RMK AO2 SLP074 T02720106 56011
KROW 160751Z AUTO 18007KT 10SM CLR 29/09 A3000 RMK AO2 SLP076 T02940094
KROW 160651Z AUTO 18010KT 10SM CLR 29/09 A3000 RMK AO2 SLP078 T02940094 403940217
KROW 160551Z AUTO 23010KT 10SM CLR 29/11 A3002 RMK AO2 WSHFT 0500 LTG DSNT SW SLP087 T02940106 10383 20294 51019
KROW 160520Z AUTO 25016KT 10SM FEW110 31/09 A3003 RMK AO2 WSHFT 0500 LTG DSNT S AND SW T03110094
KROW 160451Z AUTO 21009KT 10SM FEW090 BKN110 32/09 A3001 RMK AO2 LTG DSNT SW AND W SLP082 T03170089
KROW 160351Z AUTO 17009KT 10SM CLR 32/09 A2998 RMK AO2 SLP074 T03220089
KROW 160251Z AUTO 17010KT 10SM CLR 33/09 A2996 RMK AO2 SLP068 T03280089 53004
KROW 160151Z 17010KT 10SM CLR 34/08 A2995 RMK AO2 SLP065 T03440083
KROW 160051Z 17014KT 10SM CLR 36/07 A2994 RMK AO2 SLP063 T03610072
KROW 152351Z 16015KT 10SM CLR 38/07 A2995 RMK AO2 SLP065 60000 T03830067 10394 20344 56013
KROW 152251Z 15011G21KT 10SM CLR 38/07 A2996 RMK AO2 RAE2155 SLP066 P0000 T03830067
KROW 152151Z 14018G23KT 10SM -RA CLR 39/08 A2998 RMK AO2 PK WND 13027/2059 RAB13 SLP072 P0000 T03890078
KROW 152051Z 16014G21KT 10SM CLR 38/09 A2999 RMK AO2 PK WND 15026/2033 SLP078 T03830089 58020
KROW 151951Z 13009G19KT 10SM CLR 37/11 A3002 RMK AO2 SLP090 T03720106
KROW 151851Z 13015G21KT 10SM CLR 36/10 A3004 RMK AO2 SLP096 T03610100
KROW 151751Z 18009KT 10SM CLR 35/09 A3006 RMK AO2 SLP100 T03500094 10356 20217 56010
KROW 151651Z 19013KT 10SM CLR 34/10 A3007 RMK AO2 SLP105 T03390100
KROW 151551Z 18010KT 10SM CLR 31/11 A3007 RMK AO2 SLP106 T03110106
KROW 151451Z 21005KT 10SM CLR 28/11 A3009 RMK AO2 SLP114 T02780111 57002
KROW 151351Z 15006KT 10SM CLR 27/12 A3009 RMK AO2 SLP114 T02670117
KROW 151251Z 09005KT 10SM CLR 23/12 A3009 RMK AO2 SLP114 T02330117
KROW 151151Z 04007KT 10SM BKN110 22/12 A3009 RMK AO2 SLP117 T02170122 10272 20217 53005
KROW 151051Z AUTO 04004KT 10SM OVC110 23/11 A3009 RMK AO2 SLP111 T02330106
KROW 150951Z AUTO 23003KT 10SM SCT110 23/09 A3007 RMK AO2 SLP108 T02330089
KROW 150851Z AUTO 23004KT 10SM CLR 23/08 A3008 RMK AO2 SLP110 T02280083 58001
KROW 150751Z AUTO 19003KT 10SM CLR 23/09 A3009 RMK AO2 SLP115 T02330089
KROW 150651Z AUTO 17003KT 10SM CLR 24/09 A3008 RMK AO2 SLP114 T02440089 403780217
KROW 150551Z AUTO 17006KT 10SM CLR 26/09 A3008 RMK AO2 SLP113 T02560094 10367 20256 51015
KROW 150451Z AUTO 15005KT 10SM CLR 27/09 A3007 RMK AO2 SLP108 T02720094
KROW 150351Z AUTO 13007KT 10SM CLR 29/08 A3006 RMK AO2 SLP104 T02940083
KROW 150251Z AUTO 14007KT 10SM CLR 31/08 A3003 RMK AO2 SLP095 T03110078 53005
KROW 150151Z 15007KT 10SM CLR 34/08 A3002 RMK AO2 SLP091 T03390078
KROW 150051Z 15010KT 10SM CLR 36/08 A3001 RMK AO2 SLP090 T03560083